Chef Menteur, Louisiana
Current Conditions -  °F | °C
As of 8:53 AM on Friday 19 Dec 2014 (Local Time) from KNEW Reporting Station
Overcast Overcast  
Wind Chill: 58°   Ceiling: 2200
Heat Index: 58°   Visibility: 10mi
Dew Point: 53°   Wind: 16mph
Humidity: 84%   Direction: 50°NE
Pressure: 30.16"   Gusts: NA
Location:  29.9961°N, 90.0035°W
Report Text: KNEW 191453Z AUTO 05014KT 10SM FEW008 BKN022 OVC032 14/12 A3016 RMK AO2 RAE09 SLP206 P0001 60003 T01440117 51011 TSNO
Loading
Personal Weather Stations






























Interactive Weather Map New forecast layout! Learn more

10-Day Weather Forecast

Advertisements
Track Severe Weather on mobile